KMIC/MIC METAR and TAF weather

Enter ICAO airport designator
Station Type Date Time Source
KMIC METAR 2019/06/27 03:53 UTC NOAA

KMIC 270353Z AUTO 00000KT 10SM CLR 21/16 A3003 RMK AO2 SLP165 T02110161


Station Type Date Time Source
KMIC Decoded METAR 2019/06/27 03:53 UTC NOAA

CRYSTAL AIRPORT, MN, United States (KMIC) 45-04N 093-21W 265M
Jun 26, 2019 - 11:53 PM EDT / 2019.06.27 0353 UTC
Wind: Calm:0
Visibility: 10 mile(s):0
Sky conditions: clear
Temperature: 70.0 F (21.1 C)
Dew Point: 61.0 F (16.1 C)
Relative Humidity: 73%
Pressure (altimeter): 30.03 in. Hg (1016 hPa)
ob: KMIC 270353Z AUTO 00000KT 10SM CLR 21/16 A3003 RMK AO2 SLP165 T02110161
cycle: 4

Station Type Date Time Source
KMIC TAF UTC NOAA

Error!

Example: see airport list